sensor_id;sensor_type;location;lat;lon;timestamp;P1;durP1;ratioP1;P2;durP2;ratioP2
13720;SDS011;6932;51.438;5.470;2024-01-11T00:00:32;24.63;;;14.83;;
13720;SDS011;6932;51.438;5.470;2024-01-11T00:02:58;25.67;;;14.77;;
13720;SDS011;6932;51.438;5.470;2024-01-11T00:05:24;24.53;;;14.30;;
13720;SDS011;6932;51.438;5.470;2024-01-11T00:07:49;26.17;;;15.33;;
13720;SDS011;6932;51.438;5.470;2024-01-11T00:10:15;24.00;;;15.10;;
13720;SDS011;6932;51.438;5.470;2024-01-11T00:12:43;27.27;;;14.13;;
13720;SDS011;6932;51.438;5.470;2024-01-11T00:15:08;25.73;;;15.20;;
13720;SDS011;6932;51.438;5.470;2024-01-11T00:17:34;26.63;;;15.43;;
13720;SDS011;6932;51.438;5.470;2024-01-11T00:20:01;24.83;;;15.20;;
13720;SDS011;6932;51.438;5.470;2024-01-11T00:22:27;28.00;;;15.70;;
13720;SDS011;6932;51.438;5.470;2024-01-11T00:24:52;25.20;;;14.63;;
13720;SDS011;6932;51.438;5.470;2024-01-11T00:27:18;25.47;;;15.60;;
13720;SDS011;6932;51.438;5.470;2024-01-11T00:29:44;24.67;;;14.80;;
13720;SDS011;6932;51.438;5.470;2024-01-11T00:32:10;23.70;;;14.33;;
13720;SDS011;6932;51.438;5.470;2024-01-11T00:34:36;23.77;;;14.37;;
13720;SDS011;6932;51.438;5.470;2024-01-11T00:37:02;26.87;;;15.23;;
13720;SDS011;6932;51.438;5.470;2024-01-11T00:39:27;27.33;;;15.13;;
13720;SDS011;6932;51.438;5.470;2024-01-11T00:41:54;25.87;;;15.27;;
13720;SDS011;6932;51.438;5.470;2024-01-11T00:44:20;24.23;;;14.20;;
13720;SDS011;6932;51.438;5.470;2024-01-11T00:46:46;24.83;;;15.40;;
13720;SDS011;6932;51.438;5.470;2024-01-11T00:49:12;24.50;;;15.17;;
13720;SDS011;6932;51.438;5.470;2024-01-11T00:51:37;25.20;;;14.97;;
13720;SDS011;6932;51.438;5.470;2024-01-11T00:54:03;26.13;;;15.30;;
13720;SDS011;6932;51.438;5.470;2024-01-11T00:56:29;25.70;;;15.03;;
13720;SDS011;6932;51.438;5.470;2024-01-11T00:58:55;26.80;;;15.27;;
13720;SDS011;6932;51.438;5.470;2024-01-11T01:01:20;26.37;;;15.30;;
13720;SDS011;6932;51.438;5.470;2024-01-11T01:03:46;25.00;;;14.90;;
13720;SDS011;6932;51.438;5.470;2024-01-11T01:06:12;23.97;;;14.97;;
13720;SDS011;6932;51.438;5.470;2024-01-11T01:08:37;25.87;;;15.33;;
13720;SDS011;6932;51.438;5.470;2024-01-11T01:11:03;26.20;;;15.57;;
13720;SDS011;6932;51.438;5.470;2024-01-11T01:13:29;25.30;;;14.37;;
13720;SDS011;6932;51.438;5.470;2024-01-11T01:15:55;26.23;;;14.90;;
13720;SDS011;6932;51.438;5.470;2024-01-11T01:18:20;26.57;;;16.27;;
13720;SDS011;6932;51.438;5.470;2024-01-11T01:20:46;25.97;;;15.60;;
13720;SDS011;6932;51.438;5.470;2024-01-11T01:23:12;25.97;;;15.10;;
13720;SDS011;6932;51.438;5.470;2024-01-11T01:25:38;26.93;;;14.77;;
13720;SDS011;6932;51.438;5.470;2024-01-11T01:28:04;25.53;;;15.57;;
13720;SDS011;6932;51.438;5.470;2024-01-11T01:30:30;25.00;;;15.43;;
13720;SDS011;6932;51.438;5.470;2024-01-11T01:32:55;26.97;;;15.47;;
13720;SDS011;6932;51.438;5.470;2024-01-11T01:35:21;25.23;;;15.10;;
13720;SDS011;6932;51.438;5.470;2024-01-11T01:37:47;26.23;;;15.47;;
13720;SDS011;6932;51.438;5.470;2024-01-11T01:40:13;24.77;;;15.17;;
13720;SDS011;6932;51.438;5.470;2024-01-11T01:42:45;25.67;;;16.37;;
13720;SDS011;6932;51.438;5.470;2024-01-11T01:45:11;26.10;;;16.10;;
13720;SDS011;6932;51.438;5.470;2024-01-11T01:47:40;25.67;;;15.47;;
13720;SDS011;6932;51.438;5.470;2024-01-11T01:50:07;26.00;;;15.70;;
13720;SDS011;6932;51.438;5.470;2024-01-11T01:52:35;26.93;;;15.13;;
13720;SDS011;6932;51.438;5.470;2024-01-11T01:55:05;24.77;;;14.80;;
13720;SDS011;6932;51.438;5.470;2024-01-11T01:57:35;25.57;;;14.77;;
13720;SDS011;6932;51.438;5.470;2024-01-11T02:00:02;25.47;;;15.37;;
13720;SDS011;6932;51.438;5.470;2024-01-11T02:02:29;24.37;;;14.90;;
13720;SDS011;6932;51.438;5.470;2024-01-11T02:04:59;26.93;;;15.00;;
13720;SDS011;6932;51.438;5.470;2024-01-11T02:07:25;29.73;;;15.87;;
13720;SDS011;6932;51.438;5.470;2024-01-11T02:09:51;24.37;;;15.40;;
13720;SDS011;6932;51.438;5.470;2024-01-11T02:12:17;25.27;;;14.63;;
13720;SDS011;6932;51.438;5.470;2024-01-11T02:14:43;26.27;;;15.27;;
13720;SDS011;6932;51.438;5.470;2024-01-11T02:17:09;27.37;;;15.00;;
13720;SDS011;6932;51.438;5.470;2024-01-11T02:19:35;26.00;;;15.13;;
13720;SDS011;6932;51.438;5.470;2024-01-11T02:22:02;28.33;;;16.10;;
13720;SDS011;6932;51.438;5.470;2024-01-11T02:24:43;26.73;;;15.50;;
13720;SDS011;6932;51.438;5.470;2024-01-11T02:27:09;26.70;;;14.77;;
13720;SDS011;6932;51.438;5.470;2024-01-11T02:29:35;26.33;;;15.43;;
13720;SDS011;6932;51.438;5.470;2024-01-11T02:32:01;25.17;;;14.97;;
13720;SDS011;6932;51.438;5.470;2024-01-11T02:34:29;26.07;;;16.07;;
13720;SDS011;6932;51.438;5.470;2024-01-11T02:36:55;26.73;;;15.73;;
13720;SDS011;6932;51.438;5.470;2024-01-11T02:39:22;26.10;;;14.83;;
13720;SDS011;6932;51.438;5.470;2024-01-11T02:41:50;26.70;;;15.90;;
13720;SDS011;6932;51.438;5.470;2024-01-11T02:44:17;28.30;;;16.47;;
13720;SDS011;6932;51.438;5.470;2024-01-11T02:46:43;25.63;;;15.60;;
13720;SDS011;6932;51.438;5.470;2024-01-11T02:49:08;26.90;;;15.70;;
13720;SDS011;6932;51.438;5.470;2024-01-11T02:51:34;25.23;;;15.17;;
13720;SDS011;6932;51.438;5.470;2024-01-11T02:54:01;26.73;;;15.70;;
13720;SDS011;6932;51.438;5.470;2024-01-11T02:56:27;27.27;;;15.37;;
13720;SDS011;6932;51.438;5.470;2024-01-11T02:58:53;27.07;;;16.57;;
13720;SDS011;6932;51.438;5.470;2024-01-11T03:01:18;26.43;;;15.77;;
13720;SDS011;6932;51.438;5.470;2024-01-11T03:03:44;26.57;;;15.63;;
13720;SDS011;6932;51.438;5.470;2024-01-11T03:06:10;27.43;;;15.93;;
13720;SDS011;6932;51.438;5.470;2024-01-11T03:08:36;27.03;;;15.87;;
13720;SDS011;6932;51.438;5.470;2024-01-11T03:11:01;26.97;;;15.47;;
13720;SDS011;6932;51.438;5.470;2024-01-11T03:13:27;25.83;;;15.50;;
13720;SDS011;6932;51.438;5.470;2024-01-11T03:15:53;26.20;;;15.23;;
13720;SDS011;6932;51.438;5.470;2024-01-11T03:18:19;26.57;;;16.33;;
13720;SDS011;6932;51.438;5.470;2024-01-11T03:20:44;27.10;;;16.03;;
13720;SDS011;6932;51.438;5.470;2024-01-11T03:23:10;27.40;;;16.27;;
13720;SDS011;6932;51.438;5.470;2024-01-11T03:25:36;28.80;;;16.37;;
13720;SDS011;6932;51.438;5.470;2024-01-11T03:28:01;27.40;;;16.17;;
13720;SDS011;6932;51.438;5.470;2024-01-11T03:30:27;27.77;;;16.00;;
13720;SDS011;6932;51.438;5.470;2024-01-11T03:32:53;26.80;;;16.07;;
13720;SDS011;6932;51.438;5.470;2024-01-11T03:35:19;28.10;;;16.77;;
13720;SDS011;6932;51.438;5.470;2024-01-11T03:37:46;25.53;;;15.83;;
13720;SDS011;6932;51.438;5.470;2024-01-11T03:40:12;25.83;;;15.47;;
13720;SDS011;6932;51.438;5.470;2024-01-11T03:42:37;27.33;;;16.60;;
13720;SDS011;6932;51.438;5.470;2024-01-11T03:45:03;26.00;;;15.60;;
13720;SDS011;6932;51.438;5.470;2024-01-11T03:47:30;26.37;;;14.93;;
13720;SDS011;6932;51.438;5.470;2024-01-11T03:49:55;25.57;;;15.87;;
13720;SDS011;6932;51.438;5.470;2024-01-11T03:52:21;26.67;;;15.73;;
13720;SDS011;6932;51.438;5.470;2024-01-11T03:54:47;26.17;;;15.03;;
13720;SDS011;6932;51.438;5.470;2024-01-11T03:57:13;27.53;;;14.47;;
13720;SDS011;6932;51.438;5.470;2024-01-11T03:59:40;25.63;;;15.33;;
13720;SDS011;6932;51.438;5.470;2024-01-11T04:02:06;26.07;;;15.73;;
13720;SDS011;6932;51.438;5.470;2024-01-11T04:04:32;26.63;;;15.33;;
13720;SDS011;6932;51.438;5.470;2024-01-11T04:06:58;26.43;;;16.00;;
13720;SDS011;6932;51.438;5.470;2024-01-11T04:09:24;27.63;;;16.00;;
13720;SDS011;6932;51.438;5.470;2024-01-11T04:11:50;30.57;;;16.30;;
13720;SDS011;6932;51.438;5.470;2024-01-11T04:14:16;28.13;;;16.67;;
13720;SDS011;6932;51.438;5.470;2024-01-11T04:16:42;25.63;;;15.27;;
13720;SDS011;6932;51.438;5.470;2024-01-11T04:19:08;28.80;;;16.27;;
13720;SDS011;6932;51.438;5.470;2024-01-11T04:21:34;28.53;;;16.80;;
13720;SDS011;6932;51.438;5.470;2024-01-11T04:24:02;26.93;;;15.83;;
13720;SDS011;6932;51.438;5.470;2024-01-11T04:26:28;24.70;;;15.17;;
13720;SDS011;6932;51.438;5.470;2024-01-11T04:28:53;26.57;;;15.83;;
13720;SDS011;6932;51.438;5.470;2024-01-11T04:31:19;27.33;;;15.83;;
13720;SDS011;6932;51.438;5.470;2024-01-11T04:33:45;26.33;;;14.77;;
13720;SDS011;6932;51.438;5.470;2024-01-11T04:36:11;26.70;;;16.20;;
13720;SDS011;6932;51.438;5.470;2024-01-11T04:38:38;26.13;;;16.03;;
13720;SDS011;6932;51.438;5.470;2024-01-11T04:41:10;29.27;;;15.93;;
13720;SDS011;6932;51.438;5.470;2024-01-11T04:43:38;26.07;;;15.33;;
13720;SDS011;6932;51.438;5.470;2024-01-11T04:48:47;27.57;;;15.70;;
13720;SDS011;6932;51.438;5.470;2024-01-11T04:51:14;24.87;;;14.87;;
13720;SDS011;6932;51.438;5.470;2024-01-11T04:53:42;25.77;;;15.97;;
13720;SDS011;6932;51.438;5.470;2024-01-11T04:56:10;26.93;;;15.40;;
13720;SDS011;6932;51.438;5.470;2024-01-11T04:58:39;26.80;;;14.97;;
13720;SDS011;6932;51.438;5.470;2024-01-11T05:01:07;25.20;;;15.60;;
13720;SDS011;6932;51.438;5.470;2024-01-11T05:03:41;27.53;;;14.77;;
13720;SDS011;6932;51.438;5.470;2024-01-11T05:06:14;27.70;;;16.20;;
13720;SDS011;6932;51.438;5.470;2024-01-11T05:08:42;24.70;;;15.07;;
13720;SDS011;6932;51.438;5.470;2024-01-11T05:11:16;25.60;;;15.60;;
13720;SDS011;6932;51.438;5.470;2024-01-11T05:13:43;28.97;;;15.40;;
13720;SDS011;6932;51.438;5.470;2024-01-11T05:16:22;27.63;;;15.40;;
13720;SDS011;6932;51.438;5.470;2024-01-11T05:18:50;26.03;;;14.77;;
13720;SDS011;6932;51.438;5.470;2024-01-11T05:21:18;29.17;;;15.70;;
13720;SDS011;6932;51.438;5.470;2024-01-11T05:23:45;24.73;;;14.53;;
13720;SDS011;6932;51.438;5.470;2024-01-11T05:26:12;27.57;;;15.10;;
13720;SDS011;6932;51.438;5.470;2024-01-11T05:28:39;25.27;;;14.67;;
13720;SDS011;6932;51.438;5.470;2024-01-11T05:31:05;24.47;;;14.40;;
13720;SDS011;6932;51.438;5.470;2024-01-11T05:33:35;23.87;;;13.97;;
13720;SDS011;6932;51.438;5.470;2024-01-11T05:36:02;25.47;;;14.77;;
13720;SDS011;6932;51.438;5.470;2024-01-11T05:38:28;25.47;;;15.00;;
13720;SDS011;6932;51.438;5.470;2024-01-11T05:40:54;26.17;;;14.80;;
13720;SDS011;6932;51.438;5.470;2024-01-11T05:43:20;27.73;;;15.13;;
13720;SDS011;6932;51.438;5.470;2024-01-11T05:45:47;25.87;;;15.13;;
13720;SDS011;6932;51.438;5.470;2024-01-11T05:48:13;25.43;;;14.10;;
13720;SDS011;6932;51.438;5.470;2024-01-11T05:50:39;23.37;;;14.13;;
13720;SDS011;6932;51.438;5.470;2024-01-11T05:53:05;25.73;;;14.60;;
13720;SDS011;6932;51.438;5.470;2024-01-11T05:55:31;24.50;;;14.23;;
13720;SDS011;6932;51.438;5.470;2024-01-11T05:57:57;24.70;;;13.40;;
13720;SDS011;6932;51.438;5.470;2024-01-11T06:00:22;26.37;;;14.20;;
13720;SDS011;6932;51.438;5.470;2024-01-11T06:02:48;23.83;;;13.37;;
13720;SDS011;6932;51.438;5.470;2024-01-11T06:05:14;23.17;;;13.47;;
13720;SDS011;6932;51.438;5.470;2024-01-11T06:07:40;25.50;;;13.70;;
13720;SDS011;6932;51.438;5.470;2024-01-11T06:10:06;27.90;;;15.03;;
13720;SDS011;6932;51.438;5.470;2024-01-11T06:12:34;24.30;;;13.87;;
13720;SDS011;6932;51.438;5.470;2024-01-11T06:15:00;22.77;;;13.10;;
13720;SDS011;6932;51.438;5.470;2024-01-11T06:17:27;23.83;;;13.83;;
13720;SDS011;6932;51.438;5.470;2024-01-11T06:19:54;23.07;;;13.63;;
13720;SDS011;6932;51.438;5.470;2024-01-11T06:22:20;26.03;;;13.80;;
13720;SDS011;6932;51.438;5.470;2024-01-11T06:24:46;25.47;;;13.67;;
13720;SDS011;6932;51.438;5.470;2024-01-11T06:27:11;31.00;;;14.33;;
13720;SDS011;6932;51.438;5.470;2024-01-11T06:29:37;24.10;;;13.07;;
13720;SDS011;6932;51.438;5.470;2024-01-11T06:32:04;24.67;;;13.57;;
13720;SDS011;6932;51.438;5.470;2024-01-11T06:34:30;25.10;;;13.17;;
13720;SDS011;6932;51.438;5.470;2024-01-11T06:36:56;22.90;;;13.13;;
13720;SDS011;6932;51.438;5.470;2024-01-11T06:39:22;21.37;;;12.77;;
13720;SDS011;6932;51.438;5.470;2024-01-11T06:41:47;22.33;;;13.47;;
13720;SDS011;6932;51.438;5.470;2024-01-11T06:44:13;25.70;;;13.90;;
13720;SDS011;6932;51.438;5.470;2024-01-11T06:46:39;25.03;;;13.70;;
13720;SDS011;6932;51.438;5.470;2024-01-11T06:49:06;45.30;;;14.93;;
13720;SDS011;6932;51.438;5.470;2024-01-11T06:51:33;28.10;;;14.33;;
13720;SDS011;6932;51.438;5.470;2024-01-11T06:53:59;26.93;;;13.60;;
13720;SDS011;6932;51.438;5.470;2024-01-11T06:56:26;29.60;;;12.80;;
13720;SDS011;6932;51.438;5.470;2024-01-11T06:58:53;24.87;;;13.13;;
13720;SDS011;6932;51.438;5.470;2024-01-11T07:01:20;22.50;;;12.93;;
13720;SDS011;6932;51.438;5.470;2024-01-11T07:03:46;24.83;;;12.63;;
13720;SDS011;6932;51.438;5.470;2024-01-11T07:06:12;22.27;;;12.47;;
13720;SDS011;6932;51.438;5.470;2024-01-11T07:08:37;22.90;;;12.90;;
13720;SDS011;6932;51.438;5.470;2024-01-11T07:11:03;22.50;;;13.50;;
13720;SDS011;6932;51.438;5.470;2024-01-11T07:13:29;23.47;;;13.17;;
13720;SDS011;6932;51.438;5.470;2024-01-11T07:15:59;31.30;;;13.33;;
13720;SDS011;6932;51.438;5.470;2024-01-11T07:18:25;25.57;;;13.67;;
13720;SDS011;6932;51.438;5.470;2024-01-11T07:20:52;28.23;;;13.60;;
13720;SDS011;6932;51.438;5.470;2024-01-11T07:23:18;23.57;;;12.80;;
13720;SDS011;6932;51.438;5.470;2024-01-11T07:25:44;23.20;;;13.33;;
13720;SDS011;6932;51.438;5.470;2024-01-11T07:28:10;22.33;;;13.00;;
13720;SDS011;6932;51.438;5.470;2024-01-11T07:30:35;26.90;;;13.00;;
13720;SDS011;6932;51.438;5.470;2024-01-11T07:33:01;21.70;;;12.97;;
13720;SDS011;6932;51.438;5.470;2024-01-11T07:35:27;23.80;;;13.13;;
13720;SDS011;6932;51.438;5.470;2024-01-11T07:37:53;23.40;;;13.03;;
13720;SDS011;6932;51.438;5.470;2024-01-11T07:40:19;22.50;;;12.70;;
13720;SDS011;6932;51.438;5.470;2024-01-11T07:42:45;22.63;;;12.63;;
13720;SDS011;6932;51.438;5.470;2024-01-11T07:45:11;22.53;;;12.83;;
13720;SDS011;6932;51.438;5.470;2024-01-11T07:47:37;22.03;;;12.90;;
13720;SDS011;6932;51.438;5.470;2024-01-11T07:50:06;22.67;;;12.13;;
13720;SDS011;6932;51.438;5.470;2024-01-11T07:52:34;21.63;;;13.10;;
13720;SDS011;6932;51.438;5.470;2024-01-11T07:55:01;21.80;;;12.40;;
13720;SDS011;6932;51.438;5.470;2024-01-11T07:57:32;21.47;;;12.33;;
13720;SDS011;6932;51.438;5.470;2024-01-11T07:59:59;21.57;;;12.30;;
13720;SDS011;6932;51.438;5.470;2024-01-11T08:02:26;21.23;;;12.10;;
13720;SDS011;6932;51.438;5.470;2024-01-11T08:04:52;22.50;;;12.73;;
13720;SDS011;6932;51.438;5.470;2024-01-11T08:07:18;23.60;;;13.10;;
13720;SDS011;6932;51.438;5.470;2024-01-11T08:09:44;24.77;;;14.83;;
13720;SDS011;6932;51.438;5.470;2024-01-11T08:12:13;22.70;;;14.30;;
13720;SDS011;6932;51.438;5.470;2024-01-11T08:14:39;24.47;;;13.47;;
13720;SDS011;6932;51.438;5.470;2024-01-11T08:17:07;24.57;;;12.60;;
13720;SDS011;6932;51.438;5.470;2024-01-11T08:19:33;23.00;;;12.33;;
13720;SDS011;6932;51.438;5.470;2024-01-11T08:22:00;24.27;;;12.83;;
13720;SDS011;6932;51.438;5.470;2024-01-11T08:24:26;24.37;;;13.50;;
13720;SDS011;6932;51.438;5.470;2024-01-11T08:26:52;25.00;;;12.53;;
13720;SDS011;6932;51.438;5.470;2024-01-11T08:29:18;22.30;;;12.37;;
13720;SDS011;6932;51.438;5.470;2024-01-11T08:31:47;22.10;;;12.47;;
13720;SDS011;6932;51.438;5.470;2024-01-11T08:34:13;22.87;;;12.50;;
13720;SDS011;6932;51.438;5.470;2024-01-11T08:36:38;27.47;;;13.70;;
13720;SDS011;6932;51.438;5.470;2024-01-11T08:39:05;28.10;;;13.10;;
13720;SDS011;6932;51.438;5.470;2024-01-11T08:41:32;25.83;;;13.13;;
13720;SDS011;6932;51.438;5.470;2024-01-11T08:43:58;22.87;;;12.70;;
13720;SDS011;6932;51.438;5.470;2024-01-11T08:46:27;22.03;;;12.60;;
13720;SDS011;6932;51.438;5.470;2024-01-11T08:48:55;25.03;;;13.03;;
13720;SDS011;6932;51.438;5.470;2024-01-11T08:51:22;24.67;;;12.47;;
13720;SDS011;6932;51.438;5.470;2024-01-11T08:53:48;21.33;;;12.67;;
13720;SDS011;6932;51.438;5.470;2024-01-11T08:56:13;26.73;;;13.00;;
13720;SDS011;6932;51.438;5.470;2024-01-11T08:58:41;25.00;;;12.67;;
13720;SDS011;6932;51.438;5.470;2024-01-11T09:01:07;22.13;;;13.20;;
13720;SDS011;6932;51.438;5.470;2024-01-11T09:03:36;23.07;;;13.33;;
13720;SDS011;6932;51.438;5.470;2024-01-11T09:06:02;22.77;;;13.27;;
13720;SDS011;6932;51.438;5.470;2024-01-11T09:08:29;20.47;;;12.93;;
13720;SDS011;6932;51.438;5.470;2024-01-11T09:10:55;23.13;;;12.83;;
13720;SDS011;6932;51.438;5.470;2024-01-11T09:13:23;21.57;;;12.77;;
13720;SDS011;6932;51.438;5.470;2024-01-11T09:15:51;21.43;;;12.20;;
13720;SDS011;6932;51.438;5.470;2024-01-11T09:18:18;19.90;;;12.20;;
13720;SDS011;6932;51.438;5.470;2024-01-11T09:20:43;22.10;;;12.77;;
13720;SDS011;6932;51.438;5.470;2024-01-11T09:23:09;23.67;;;13.10;;
13720;SDS011;6932;51.438;5.470;2024-01-11T09:25:35;24.43;;;12.53;;
13720;SDS011;6932;51.438;5.470;2024-01-11T09:28:00;21.13;;;13.07;;
13720;SDS011;6932;51.438;5.470;2024-01-11T09:30:26;20.50;;;12.63;;
13720;SDS011;6932;51.438;5.470;2024-01-11T09:32:52;27.67;;;13.30;;
13720;SDS011;6932;51.438;5.470;2024-01-11T09:35:18;30.00;;;14.13;;
13720;SDS011;6932;51.438;5.470;2024-01-11T09:37:43;33.20;;;13.70;;
13720;SDS011;6932;51.438;5.470;2024-01-11T09:40:11;25.27;;;13.60;;
13720;SDS011;6932;51.438;5.470;2024-01-11T09:42:37;21.70;;;12.83;;
13720;SDS011;6932;51.438;5.470;2024-01-11T09:45:07;21.33;;;12.63;;
13720;SDS011;6932;51.438;5.470;2024-01-11T09:47:41;20.63;;;13.07;;
13720;SDS011;6932;51.438;5.470;2024-01-11T09:50:09;23.37;;;12.83;;
13720;SDS011;6932;51.438;5.470;2024-01-11T09:52:35;21.53;;;12.93;;
13720;SDS011;6932;51.438;5.470;2024-01-11T09:55:04;22.27;;;13.27;;
13720;SDS011;6932;51.438;5.470;2024-01-11T09:57:31;24.73;;;13.67;;
13720;SDS011;6932;51.438;5.470;2024-01-11T09:59:58;23.30;;;13.77;;
13720;SDS011;6932;51.438;5.470;2024-01-11T10:02:25;20.97;;;12.57;;
13720;SDS011;6932;51.438;5.470;2024-01-11T10:04:52;21.87;;;12.33;;
13720;SDS011;6932;51.438;5.470;2024-01-11T10:07:19;20.70;;;12.90;;
13720;SDS011;6932;51.438;5.470;2024-01-11T10:09:48;20.37;;;13.20;;
13720;SDS011;6932;51.438;5.470;2024-01-11T10:12:15;22.47;;;13.10;;
13720;SDS011;6932;51.438;5.470;2024-01-11T10:14:42;25.73;;;14.63;;
13720;SDS011;6932;51.438;5.470;2024-01-11T10:17:08;21.77;;;13.30;;
13720;SDS011;6932;51.438;5.470;2024-01-11T10:19:33;22.40;;;14.10;;
13720;SDS011;6932;51.438;5.470;2024-01-11T10:21:59;24.10;;;13.07;;
13720;SDS011;6932;51.438;5.470;2024-01-11T10:24:25;20.20;;;13.70;;
13720;SDS011;6932;51.438;5.470;2024-01-11T10:27:00;21.40;;;13.27;;
13720;SDS011;6932;51.438;5.470;2024-01-11T10:29:32;21.97;;;13.20;;
13720;SDS011;6932;51.438;5.470;2024-01-11T10:32:01;20.77;;;13.07;;
13720;SDS011;6932;51.438;5.470;2024-01-11T10:34:29;19.73;;;12.83;;
13720;SDS011;6932;51.438;5.470;2024-01-11T10:36:55;27.23;;;13.93;;
13720;SDS011;6932;51.438;5.470;2024-01-11T10:39:25;22.30;;;12.70;;
13720;SDS011;6932;51.438;5.470;2024-01-11T10:41:56;24.10;;;13.30;;
13720;SDS011;6932;51.438;5.470;2024-01-11T10:44:32;28.23;;;14.57;;
13720;SDS011;6932;51.438;5.470;2024-01-11T10:47:02;22.43;;;13.17;;
13720;SDS011;6932;51.438;5.470;2024-01-11T10:49:32;21.20;;;13.20;;
13720;SDS011;6932;51.438;5.470;2024-01-11T10:52:03;22.43;;;14.27;;
13720;SDS011;6932;51.438;5.470;2024-01-11T10:54:33;23.77;;;14.03;;
13720;SDS011;6932;51.438;5.470;2024-01-11T10:56:59;19.80;;;12.87;;
13720;SDS011;6932;51.438;5.470;2024-01-11T10:59:26;20.83;;;13.00;;
13720;SDS011;6932;51.438;5.470;2024-01-11T11:01:56;21.80;;;14.00;;
13720;SDS011;6932;51.438;5.470;2024-01-11T11:04:25;22.07;;;14.23;;
13720;SDS011;6932;51.438;5.470;2024-01-11T11:06:52;21.70;;;14.10;;
13720;SDS011;6932;51.438;5.470;2024-01-11T11:09:22;21.00;;;13.43;;
13720;SDS011;6932;51.438;5.470;2024-01-11T11:11:50;23.70;;;14.13;;
13720;SDS011;6932;51.438;5.470;2024-01-11T11:14:23;20.87;;;13.33;;
13720;SDS011;6932;51.438;5.470;2024-01-11T11:16:50;21.97;;;13.60;;
13720;SDS011;6932;51.438;5.470;2024-01-11T11:19:18;23.03;;;13.70;;
13720;SDS011;6932;51.438;5.470;2024-01-11T11:21:46;21.90;;;13.87;;
13720;SDS011;6932;51.438;5.470;2024-01-11T11:24:13;21.50;;;13.47;;
13720;SDS011;6932;51.438;5.470;2024-01-11T11:26:44;22.10;;;13.73;;
13720;SDS011;6932;51.438;5.470;2024-01-11T11:29:10;23.67;;;13.83;;
13720;SDS011;6932;51.438;5.470;2024-01-11T11:31:42;21.83;;;13.93;;
13720;SDS011;6932;51.438;5.470;2024-01-11T11:34:12;21.57;;;13.57;;
13720;SDS011;6932;51.438;5.470;2024-01-11T11:36:39;22.17;;;14.23;;
13720;SDS011;6932;51.438;5.470;2024-01-11T11:39:09;20.57;;;14.10;;
13720;SDS011;6932;51.438;5.470;2024-01-11T11:41:39;22.43;;;13.67;;
13720;SDS011;6932;51.438;5.470;2024-01-11T11:44:07;20.63;;;13.73;;
13720;SDS011;6932;51.438;5.470;2024-01-11T11:46:38;21.07;;;13.67;;
13720;SDS011;6932;51.438;5.470;2024-01-11T11:49:04;22.47;;;14.83;;
13720;SDS011;6932;51.438;5.470;2024-01-11T11:51:30;23.77;;;14.63;;
13720;SDS011;6932;51.438;5.470;2024-01-11T11:53:59;24.23;;;14.33;;
13720;SDS011;6932;51.438;5.470;2024-01-11T11:56:27;22.47;;;14.53;;
13720;SDS011;6932;51.438;5.470;2024-01-11T11:58:54;23.13;;;14.57;;
13720;SDS011;6932;51.438;5.470;2024-01-11T12:01:20;22.73;;;14.87;;
13720;SDS011;6932;51.438;5.470;2024-01-11T12:03:46;23.30;;;14.13;;
13720;SDS011;6932;51.438;5.470;2024-01-11T12:06:19;27.40;;;14.53;;
13720;SDS011;6932;51.438;5.470;2024-01-11T12:08:49;23.73;;;15.53;;
13720;SDS011;6932;51.438;5.470;2024-01-11T12:11:19;29.80;;;15.47;;
13720;SDS011;6932;51.438;5.470;2024-01-11T12:13:47;24.97;;;14.37;;
13720;SDS011;6932;51.438;5.470;2024-01-11T12:16:15;22.97;;;14.77;;
13720;SDS011;6932;51.438;5.470;2024-01-11T12:18:41;22.73;;;14.83;;
13720;SDS011;6932;51.438;5.470;2024-01-11T12:21:09;26.47;;;15.43;;
13720;SDS011;6932;51.438;5.470;2024-01-11T12:23:37;25.37;;;15.40;;
13720;SDS011;6932;51.438;5.470;2024-01-11T12:26:06;24.73;;;15.57;;
13720;SDS011;6932;51.438;5.470;2024-01-11T12:28:39;25.40;;;15.37;;
13720;SDS011;6932;51.438;5.470;2024-01-11T12:31:06;21.90;;;14.27;;
13720;SDS011;6932;51.438;5.470;2024-01-11T12:33:31;23.93;;;14.80;;
13720;SDS011;6932;51.438;5.470;2024-01-11T12:35:59;24.47;;;14.53;;
13720;SDS011;6932;51.438;5.470;2024-01-11T12:38:26;22.57;;;14.27;;
13720;SDS011;6932;51.438;5.470;2024-01-11T12:40:51;23.33;;;14.70;;
13720;SDS011;6932;51.438;5.470;2024-01-11T12:43:18;25.30;;;15.70;;
13720;SDS011;6932;51.438;5.470;2024-01-11T12:45:43;25.50;;;15.30;;
13720;SDS011;6932;51.438;5.470;2024-01-11T12:48:09;23.23;;;15.07;;
13720;SDS011;6932;51.438;5.470;2024-01-11T12:50:39;26.87;;;15.60;;
13720;SDS011;6932;51.438;5.470;2024-01-11T12:53:09;25.50;;;14.00;;
13720;SDS011;6932;51.438;5.470;2024-01-11T12:55:46;23.07;;;14.50;;
13720;SDS011;6932;51.438;5.470;2024-01-11T12:58:14;25.77;;;15.90;;
13720;SDS011;6932;51.438;5.470;2024-01-11T13:00:46;25.30;;;14.90;;
13720;SDS011;6932;51.438;5.470;2024-01-11T13:03:13;23.50;;;14.50;;
13720;SDS011;6932;51.438;5.470;2024-01-11T13:05:39;24.63;;;15.43;;
13720;SDS011;6932;51.438;5.470;2024-01-11T13:08:08;23.67;;;15.10;;
13720;SDS011;6932;51.438;5.470;2024-01-11T13:10:34;23.10;;;15.00;;
13720;SDS011;6932;51.438;5.470;2024-01-11T13:13:01;24.03;;;14.83;;
13720;SDS011;6932;51.438;5.470;2024-01-11T13:15:28;26.20;;;15.03;;
13720;SDS011;6932;51.438;5.470;2024-01-11T13:17:54;27.20;;;15.87;;
13720;SDS011;6932;51.438;5.470;2024-01-11T13:20:21;24.60;;;15.50;;
13720;SDS011;6932;51.438;5.470;2024-01-11T13:22:47;23.20;;;15.00;;
13720;SDS011;6932;51.438;5.470;2024-01-11T13:25:18;25.30;;;16.57;;
13720;SDS011;6932;51.438;5.470;2024-01-11T13:27:44;23.80;;;15.73;;
13720;SDS011;6932;51.438;5.470;2024-01-11T13:30:10;25.97;;;15.53;;
13720;SDS011;6932;51.438;5.470;2024-01-11T13:32:36;27.23;;;15.90;;
13720;SDS011;6932;51.438;5.470;2024-01-11T13:35:01;28.53;;;16.37;;
13720;SDS011;6932;51.438;5.470;2024-01-11T13:37:28;23.83;;;15.20;;
13720;SDS011;6932;51.438;5.470;2024-01-11T13:39:54;29.57;;;17.37;;
13720;SDS011;6932;51.438;5.470;2024-01-11T13:42:20;25.23;;;16.30;;
13720;SDS011;6932;51.438;5.470;2024-01-11T13:44:46;25.13;;;15.37;;
13720;SDS011;6932;51.438;5.470;2024-01-11T13:47:11;22.93;;;15.40;;
13720;SDS011;6932;51.438;5.470;2024-01-11T13:49:38;23.13;;;15.33;;
13720;SDS011;6932;51.438;5.470;2024-01-11T13:52:03;25.53;;;15.40;;
13720;SDS011;6932;51.438;5.470;2024-01-11T13:54:29;23.63;;;15.57;;
13720;SDS011;6932;51.438;5.470;2024-01-11T13:56:55;26.37;;;16.63;;
13720;SDS011;6932;51.438;5.470;2024-01-11T13:59:21;25.83;;;16.70;;
13720;SDS011;6932;51.438;5.470;2024-01-11T14:01:46;22.37;;;14.87;;
13720;SDS011;6932;51.438;5.470;2024-01-11T14:04:12;23.67;;;14.60;;
13720;SDS011;6932;51.438;5.470;2024-01-11T14:06:38;21.13;;;13.20;;
13720;SDS011;6932;51.438;5.470;2024-01-11T14:09:03;20.17;;;12.57;;
13720;SDS011;6932;51.438;5.470;2024-01-11T14:11:32;20.07;;;11.87;;
13720;SDS011;6932;51.438;5.470;2024-01-11T14:13:58;18.37;;;11.23;;
13720;SDS011;6932;51.438;5.470;2024-01-11T14:16:24;15.83;;;9.30;;
13720;SDS011;6932;51.438;5.470;2024-01-11T14:18:50;14.00;;;8.17;;
13720;SDS011;6932;51.438;5.470;2024-01-11T14:21:15;15.67;;;8.43;;
13720;SDS011;6932;51.438;5.470;2024-01-11T14:23:41;13.70;;;7.63;;
13720;SDS011;6932;51.438;5.470;2024-01-11T14:26:07;15.20;;;8.43;;
13720;SDS011;6932;51.438;5.470;2024-01-11T14:28:32;16.00;;;9.30;;
13720;SDS011;6932;51.438;5.470;2024-01-11T14:30:58;16.53;;;9.17;;
13720;SDS011;6932;51.438;5.470;2024-01-11T14:33:24;15.77;;;8.27;;
13720;SDS011;6932;51.438;5.470;2024-01-11T14:35:49;16.27;;;8.57;;